Nearby METAR Reports

 

KC09 - Morris-Washburn, Illinois, USA
Distance from station: NW 9mi, 14km
Updated: Tue, 22-Aug-2017 7:15pm CDT
Clear
Clear
 Wind from NW
Wind: NW 3 mph , 6 km/h
Temperature: 70°F , 21°C
Dew Point: 57°F , 14°C
Humidity: 64%
Barometer: 29.96 inHg , 1014.6 hPa
Clouds: Clear
Visibility: 10 miles , 16 km
2017/08/23 00:15 KC09 230015Z AUTO 32003KT 10SM CLR 21/14 A2996 RMK AO2 T02070137
KJOT - Joliet, Illinois, USA
Distance from station: NNE 13mi, 22km
Updated: Tue, 22-Aug-2017 7:15pm CDT
Clear
Clear
 Wind from WNW
Wind: WNW 6 mph , 9 km/h
Temperature: 73°F , 23°C
Dew Point: 57°F , 14°C
Humidity: 57%
Barometer: 29.96 inHg , 1014.6 hPa
Clouds: Clear
Visibility: 10 miles , 16 km
2017/08/23 00:15 KJOT 230015Z AUTO 30005KT 10SM CLR 23/14 A2996 RMK AO2 T02320135
 
KLOT - Romeoville/Chi, Illinois, USA
Distance from station: NNE 21mi, 33km
Updated: Tue, 22-Aug-2017 7:15pm CDT
Clear
Clear
 Wind from NNW
Wind: NNW 10 mph , 17 km/h, Gust: 20 mph , 31 km/h
Temperature: 72°F , 22°C
Dew Point: 50°F , 10°C
Humidity: 47%
Barometer: 29.96 inHg , 1014.6 hPa
Clouds: Clear
Visibility: 10 miles , 16 km
2017/08/23 00:15 KLOT 230015Z AUTO 33009G17KT 10SM CLR 22/10 A2996 RMK AO2 T02190097
KIKK - Kankakee, Illinois, USA
Distance from station: SE 30mi, 48km
Updated: Tue, 22-Aug-2017 7:15pm CDT
Clear
Clear
 Wind from NW
Wind: NW 9 mph , 15 km/h
Temperature: 72°F , 22°C
Dew Point: 55°F , 13°C
Humidity: 57%
Barometer: 29.96 inHg , 1014.6 hPa
Clouds: Clear
Visibility: 10 miles , 16 km
2017/08/23 00:15 KIKK 230015Z AUTO 31008KT 10SM CLR 22/13 A2996 RMK AO2 T02200127
 
KARR - Chicago/Aurora, Illinois, USA
Distance from station: NNW 31mi, 50km
Updated: Tue, 22-Aug-2017 6:52pm CDT
Clear
Clear
 Wind from NW
Wind: NW 9 mph , 15 km/h
Temperature: 70°F , 21°C
Dew Point: 57°F , 14°C
Humidity: 64%
Barometer: 29.97 inHg , 1014.9 hPa
Clouds: Clear
Visibility: 10 miles , 16 km
2017/08/22 23:52 KARR 222352Z 31008KT 10SM CLR 21/14 A2997 RMK AO2 SLP144 T02110144 10250 20211 52008
KPNT - Pontiac, Illinois, USA
Distance from station: SSW 34mi, 54km
Updated: Tue, 22-Aug-2017 7:15pm CDT
Partly cloudy
Partly cloudy
 Wind from NW
Wind: NW 6 mph , 9 km/h
Temperature: 70°F , 21°C
Dew Point: 61°F , 16°C
Humidity: 73%
Barometer: 29.99 inHg , 1015.6 hPa
Clouds: Partly cloudy
Visibility: 10 miles , 16 km
Cloud details: Partly cloudy 5000 ft
2017/08/23 00:15 KPNT 230015Z AUTO 31005KT 10SM SCT050 21/16 A2999 RMK AO2 T02120158
 
KDPA - Chicago/Dupage, Illinois, USA
Distance from station: N 40mi, 64km
Updated: Tue, 22-Aug-2017 6:52pm CDT
Clear
Clear
 Wind from NW
Wind: NW 15 mph , 24 km/h, Gust: 22 mph , 35 km/h
Temperature: 73°F , 23°C
Dew Point: 52°F , 11°C
Humidity: 47%
Barometer: 29.95 inHg , 1014.2 hPa
Clouds: Clear
Visibility: 10 miles , 16 km
2017/08/22 23:52 KDPA 222352Z 32013G19KT 10SM CLR 23/11 A2995 RMK AO2 SLP138 T02280111 10261 20228 53009
KIGQ - Chicago/Lansing, Illinois, USA
Distance from station: ENE 42mi, 67km
Updated: Tue, 22-Aug-2017 7:15pm CDT
Clear
Clear
 Wind from NW
Wind: NW 10 mph , 17 km/h, Gust: 20 mph , 31 km/h
Temperature: 75°F , 24°C
Dew Point: 50°F , 10°C
Humidity: 41%
Barometer: 29.94 inHg , 1013.9 hPa
Clouds: Clear
Visibility: 10 miles , 16 km
2017/08/23 00:15 KIGQ 230015Z AUTO 31009G17KT 10SM CLR 24/10 A2994 RMK AO2 T02360097
 
KMDW - Chicago, Illinois, USA
Distance from station: NE 42mi, 67km
Updated: Tue, 22-Aug-2017 6:53pm CDT
Few Clouds
Few Clouds
 Wind from NNW
Wind: NNW 15 mph , 24 km/h
Temperature: 75°F , 24°C
Dew Point: 52°F , 11°C
Humidity: 44%
Barometer: 29.94 inHg , 1013.9 hPa
Clouds: Few Clouds
Visibility: 10 miles , 16 km
Cloud details: Few Clouds 200 ft
Few Clouds 6000 ft
2017/08/22 23:53 KMDW 222353Z 33013KT 10SM FEW002 FEW060 24/11 A2994 RMK AO2 SLP128 FU FEW002 T02440106 10272 20244 53011
KVYS - Peru, Illinois, USA
Distance from station: W 44mi, 71km
Updated: Tue, 22-Aug-2017 7:15pm CDT
Clear
Clear
 Wind from NW
Wind: NW 7 mph , 11 km/h
Temperature: 68°F , 20°C
Dew Point: 57°F , 14°C
Humidity: 69%
Barometer: 29.99 inHg , 1015.6 hPa
Clouds: Clear
Visibility: 10 miles , 16 km
2017/08/23 00:15 KVYS 230015Z AUTO 31006KT 10SM CLR 20/14 A2999 RMK AO2 T02010135
 
KDKB - De Kalb, Illinois, USA
Distance from station: NNW 46mi, 74km
Updated: Tue, 22-Aug-2017 7:15pm CDT
Clear
Clear
 Wind from NW
Wind: NW 8 mph , 13 km/h
Temperature: 68°F , 20°C
Dew Point: 54°F , 12°C
Humidity: 60%
Barometer: 29.99 inHg , 1015.6 hPa
Clouds: Clear
Visibility: 10 miles , 16 km
2017/08/23 00:15 KDKB 230015Z AUTO 31007KT 10SM CLR 20/12 A2999 RMK AO2 T02020120
KORD - Chicago O'hare, Illinois, USA
Distance from station: NNE 48mi, 78km
Updated: Tue, 22-Aug-2017 6:51pm CDT
Few Clouds
Few Clouds
 Wind from NNW
Wind: NNW 15 mph , 24 km/h
Temperature: 75°F , 24°C
Dew Point: 48°F , 9°C
Humidity: 39%
Barometer: 29.94 inHg , 1013.9 hPa
Clouds: Few Clouds
Visibility: 10 miles , 16 km
Cloud details: Few Clouds 6000 ft
2017/08/22 23:51 KORD 222351Z 33013KT 10SM FEW060 24/09 A2994 RMK AO2 SLP134 T02440094 10278 20244 53011
 
KGYY - Gary Regional, Indiana, USA
Distance from station: ENE 49mi, 80km
Updated: Tue, 22-Aug-2017 6:45pm CDT
Few Clouds
Few Clouds
 Wind from NW
Wind: NW 14 mph , 22 km/h
Temperature: 77°F , 25°C
Dew Point: 46°F , 8°C
Humidity: 34%
Barometer: 29.93 inHg , 1013.5 hPa
Clouds: Few Clouds
Visibility: 15 miles , 24 km
Cloud details: Few Clouds 7000 ft
2017/08/22 23:45 KGYY 222345Z 32012KT 15SM FEW070 25/08 A2993